sensor_id;sensor_type;location;lat;lon;timestamp;temperature;humidity
5621;DHT22;2832;50.864;12.186;2023-07-22T00:00:34;19.50;99.70
5621;DHT22;2832;50.864;12.186;2023-07-22T00:03:20;19.50;99.70
5621;DHT22;2832;50.864;12.186;2023-07-22T00:06:02;19.50;99.70
5621;DHT22;2832;50.864;12.186;2023-07-22T00:08:31;19.50;99.70
5621;DHT22;2832;50.864;12.186;2023-07-22T00:11:03;19.50;99.70
5621;DHT22;2832;50.864;12.186;2023-07-22T00:13:49;19.50;99.70
5621;DHT22;2832;50.864;12.186;2023-07-22T00:16:36;19.50;99.70
5621;DHT22;2832;50.864;12.186;2023-07-22T00:19:03;19.50;99.70
5621;DHT22;2832;50.864;12.186;2023-07-22T00:21:35;19.40;99.70
5621;DHT22;2832;50.864;12.186;2023-07-22T00:24:07;19.40;99.70
5621;DHT22;2832;50.864;12.186;2023-07-22T00:26:36;19.40;99.70
5621;DHT22;2832;50.864;12.186;2023-07-22T00:29:05;19.50;99.70
5621;DHT22;2832;50.864;12.186;2023-07-22T00:31:35;19.40;99.60
5621;DHT22;2832;50.864;12.186;2023-07-22T00:34:04;19.50;99.60
5621;DHT22;2832;50.864;12.186;2023-07-22T00:36:33;19.50;99.70
5621;DHT22;2832;50.864;12.186;2023-07-22T00:39:00;19.40;99.60
5621;DHT22;2832;50.864;12.186;2023-07-22T00:41:33;19.40;99.70
5621;DHT22;2832;50.864;12.186;2023-07-22T00:44:03;19.40;99.70
5621;DHT22;2832;50.864;12.186;2023-07-22T00:46:37;19.40;99.60
5621;DHT22;2832;50.864;12.186;2023-07-22T00:49:05;19.40;99.60
5621;DHT22;2832;50.864;12.186;2023-07-22T00:51:38;19.40;99.60
5621;DHT22;2832;50.864;12.186;2023-07-22T00:54:23;19.40;99.70
5621;DHT22;2832;50.864;12.186;2023-07-22T00:56:54;19.40;99.70
5621;DHT22;2832;50.864;12.186;2023-07-22T00:59:25;19.40;99.70
5621;DHT22;2832;50.864;12.186;2023-07-22T01:01:53;19.40;99.60
5621;DHT22;2832;50.864;12.186;2023-07-22T01:04:22;19.30;99.60
5621;DHT22;2832;50.864;12.186;2023-07-22T01:06:51;19.30;99.60
5621;DHT22;2832;50.864;12.186;2023-07-22T01:09:20;19.40;99.70
5621;DHT22;2832;50.864;12.186;2023-07-22T01:12:08;19.50;99.50
5621;DHT22;2832;50.864;12.186;2023-07-22T01:14:39;19.50;99.40
5621;DHT22;2832;50.864;12.186;2023-07-22T01:17:08;19.40;99.40
5621;DHT22;2832;50.864;12.186;2023-07-22T01:19:37;19.40;99.50
5621;DHT22;2832;50.864;12.186;2023-07-22T01:22:09;19.40;99.40
5621;DHT22;2832;50.864;12.186;2023-07-22T01:24:45;19.50;99.50
5621;DHT22;2832;50.864;12.186;2023-07-22T01:27:15;19.50;99.50
5621;DHT22;2832;50.864;12.186;2023-07-22T01:29:42;19.40;99.40
5621;DHT22;2832;50.864;12.186;2023-07-22T01:32:22;19.40;99.40
5621;DHT22;2832;50.864;12.186;2023-07-22T01:34:50;19.40;99.40
5621;DHT22;2832;50.864;12.186;2023-07-22T01:37:18;19.40;99.50
5621;DHT22;2832;50.864;12.186;2023-07-22T01:39:51;19.40;99.50
5621;DHT22;2832;50.864;12.186;2023-07-22T01:42:21;19.30;99.50
5621;DHT22;2832;50.864;12.186;2023-07-22T01:44:49;19.30;99.50
5621;DHT22;2832;50.864;12.186;2023-07-22T01:47:18;19.30;99.50
5621;DHT22;2832;50.864;12.186;2023-07-22T01:49:47;19.20;99.50
5621;DHT22;2832;50.864;12.186;2023-07-22T01:52:15;19.20;99.60
5621;DHT22;2832;50.864;12.186;2023-07-22T01:54:43;19.20;99.60
5621;DHT22;2832;50.864;12.186;2023-07-22T01:57:11;19.20;99.60
5621;DHT22;2832;50.864;12.186;2023-07-22T01:59:43;19.20;99.50
5621;DHT22;2832;50.864;12.186;2023-07-22T02:02:11;19.20;99.40
5621;DHT22;2832;50.864;12.186;2023-07-22T02:04:39;19.20;99.50
5621;DHT22;2832;50.864;12.186;2023-07-22T02:07:10;19.10;99.50
5621;DHT22;2832;50.864;12.186;2023-07-22T02:09:38;19.10;99.60
5621;DHT22;2832;50.864;12.186;2023-07-22T02:12:07;19.00;99.50
5621;DHT22;2832;50.864;12.186;2023-07-22T02:14:37;19.00;99.60
5621;DHT22;2832;50.864;12.186;2023-07-22T02:17:05;19.00;99.60
5621;DHT22;2832;50.864;12.186;2023-07-22T02:19:35;19.00;99.70
5621;DHT22;2832;50.864;12.186;2023-07-22T02:22:19;19.00;99.80
5621;DHT22;2832;50.864;12.186;2023-07-22T02:24:47;19.00;99.60
5621;DHT22;2832;50.864;12.186;2023-07-22T02:27:17;19.00;99.60
5621;DHT22;2832;50.864;12.186;2023-07-22T02:29:44;19.00;99.60
5621;DHT22;2832;50.864;12.186;2023-07-22T02:32:13;19.00;99.60
5621;DHT22;2832;50.864;12.186;2023-07-22T02:34:43;19.00;99.60
5621;DHT22;2832;50.864;12.186;2023-07-22T02:37:16;19.00;99.50
5621;DHT22;2832;50.864;12.186;2023-07-22T02:39:54;19.00;99.40
5621;DHT22;2832;50.864;12.186;2023-07-22T02:42:23;19.00;99.40
5621;DHT22;2832;50.864;12.186;2023-07-22T02:44:56;19.00;99.40
5621;DHT22;2832;50.864;12.186;2023-07-22T02:47:29;19.00;99.30
5621;DHT22;2832;50.864;12.186;2023-07-22T02:50:00;19.00;99.30
5621;DHT22;2832;50.864;12.186;2023-07-22T02:52:28;19.00;99.30
5621;DHT22;2832;50.864;12.186;2023-07-22T02:55:07;19.00;99.30
5621;DHT22;2832;50.864;12.186;2023-07-22T02:57:37;19.00;99.30
5621;DHT22;2832;50.864;12.186;2023-07-22T03:00:17;18.90;99.40
5621;DHT22;2832;50.864;12.186;2023-07-22T03:02:57;18.90;99.30
5621;DHT22;2832;50.864;12.186;2023-07-22T03:05:28;18.90;99.30
5621;DHT22;2832;50.864;12.186;2023-07-22T03:07:58;18.90;99.20
5621;DHT22;2832;50.864;12.186;2023-07-22T03:10:28;18.90;99.20
5621;DHT22;2832;50.864;12.186;2023-07-22T03:12:58;18.90;99.10
5621;DHT22;2832;50.864;12.186;2023-07-22T03:15:31;18.90;99.00
5621;DHT22;2832;50.864;12.186;2023-07-22T03:18:01;18.90;98.90
5621;DHT22;2832;50.864;12.186;2023-07-22T03:20:31;18.80;98.90
5621;DHT22;2832;50.864;12.186;2023-07-22T03:22:59;18.90;98.90
5621;DHT22;2832;50.864;12.186;2023-07-22T03:25:28;18.90;98.90
5621;DHT22;2832;50.864;12.186;2023-07-22T03:27:56;18.90;98.80
5621;DHT22;2832;50.864;12.186;2023-07-22T03:30:24;18.90;98.80
5621;DHT22;2832;50.864;12.186;2023-07-22T03:32:58;18.80;98.70
5621;DHT22;2832;50.864;12.186;2023-07-22T03:35:27;18.80;98.80
5621;DHT22;2832;50.864;12.186;2023-07-22T03:37:55;18.70;98.80
5621;DHT22;2832;50.864;12.186;2023-07-22T03:40:23;18.70;98.80
5621;DHT22;2832;50.864;12.186;2023-07-22T03:42:56;18.80;98.80
5621;DHT22;2832;50.864;12.186;2023-07-22T03:45:25;18.70;98.80
5621;DHT22;2832;50.864;12.186;2023-07-22T03:47:56;18.70;98.80
5621;DHT22;2832;50.864;12.186;2023-07-22T03:50:25;18.70;98.90
5621;DHT22;2832;50.864;12.186;2023-07-22T03:52:53;18.70;98.90
5621;DHT22;2832;50.864;12.186;2023-07-22T03:55:21;18.70;98.90
5621;DHT22;2832;50.864;12.186;2023-07-22T03:57:49;18.60;98.90
5621;DHT22;2832;50.864;12.186;2023-07-22T04:00:20;18.70;98.80
5621;DHT22;2832;50.864;12.186;2023-07-22T04:02:52;18.70;98.80
5621;DHT22;2832;50.864;12.186;2023-07-22T04:05:20;18.70;98.80
5621;DHT22;2832;50.864;12.186;2023-07-22T04:07:50;18.70;98.70
5621;DHT22;2832;50.864;12.186;2023-07-22T04:10:18;18.70;98.70
5621;DHT22;2832;50.864;12.186;2023-07-22T04:12:46;18.60;98.70
5621;DHT22;2832;50.864;12.186;2023-07-22T04:15:13;18.60;98.80
5621;DHT22;2832;50.864;12.186;2023-07-22T04:17:45;18.60;98.80
5621;DHT22;2832;50.864;12.186;2023-07-22T04:20:13;18.70;99.10
5621;DHT22;2832;50.864;12.186;2023-07-22T04:22:41;18.60;98.90
5621;DHT22;2832;50.864;12.186;2023-07-22T04:25:11;18.60;98.90
5621;DHT22;2832;50.864;12.186;2023-07-22T04:27:38;18.60;98.90
5621;DHT22;2832;50.864;12.186;2023-07-22T04:30:07;18.60;99.00
5621;DHT22;2832;50.864;12.186;2023-07-22T04:32:44;18.60;99.10
5621;DHT22;2832;50.864;12.186;2023-07-22T04:35:13;18.50;99.20
5621;DHT22;2832;50.864;12.186;2023-07-22T04:37:44;18.60;99.20
5621;DHT22;2832;50.864;12.186;2023-07-22T04:40:16;18.60;99.30
5621;DHT22;2832;50.864;12.186;2023-07-22T04:42:45;18.50;99.30
5621;DHT22;2832;50.864;12.186;2023-07-22T04:45:14;18.50;99.30
5621;DHT22;2832;50.864;12.186;2023-07-22T04:47:41;18.50;99.40
5621;DHT22;2832;50.864;12.186;2023-07-22T04:50:13;18.60;99.40
5621;DHT22;2832;50.864;12.186;2023-07-22T04:52:46;18.50;99.30
5621;DHT22;2832;50.864;12.186;2023-07-22T04:55:15;18.60;99.30
5621;DHT22;2832;50.864;12.186;2023-07-22T04:57:44;18.60;99.40
5621;DHT22;2832;50.864;12.186;2023-07-22T05:00:13;18.60;99.40
5621;DHT22;2832;50.864;12.186;2023-07-22T05:02:42;18.60;99.50
5621;DHT22;2832;50.864;12.186;2023-07-22T05:05:13;18.60;99.60
5621;DHT22;2832;50.864;12.186;2023-07-22T05:07:41;18.70;99.60
5621;DHT22;2832;50.864;12.186;2023-07-22T05:10:09;18.70;99.60
5621;DHT22;2832;50.864;12.186;2023-07-22T05:12:43;18.70;99.50
5621;DHT22;2832;50.864;12.186;2023-07-22T05:15:14;18.80;99.40
5621;DHT22;2832;50.864;12.186;2023-07-22T05:17:45;18.70;99.30
5621;DHT22;2832;50.864;12.186;2023-07-22T05:20:17;18.70;99.30
5621;DHT22;2832;50.864;12.186;2023-07-22T05:22:51;18.80;99.30
5621;DHT22;2832;50.864;12.186;2023-07-22T05:25:51;18.80;99.20
5621;DHT22;2832;50.864;12.186;2023-07-22T05:28:19;18.80;99.10
5621;DHT22;2832;50.864;12.186;2023-07-22T05:30:47;18.90;99.10
5621;DHT22;2832;50.864;12.186;2023-07-22T05:33:15;18.90;99.10
5621;DHT22;2832;50.864;12.186;2023-07-22T05:35:46;18.80;99.10
5621;DHT22;2832;50.864;12.186;2023-07-22T05:38:17;18.80;99.10
5621;DHT22;2832;50.864;12.186;2023-07-22T05:40:47;18.90;99.10
5621;DHT22;2832;50.864;12.186;2023-07-22T05:43:20;18.90;99.10
5621;DHT22;2832;50.864;12.186;2023-07-22T05:45:49;18.80;99.00
5621;DHT22;2832;50.864;12.186;2023-07-22T05:48:17;18.90;99.10
5621;DHT22;2832;50.864;12.186;2023-07-22T05:50:47;18.80;99.00
5621;DHT22;2832;50.864;12.186;2023-07-22T05:53:17;18.90;99.00
5621;DHT22;2832;50.864;12.186;2023-07-22T05:55:49;18.90;99.00
5621;DHT22;2832;50.864;12.186;2023-07-22T05:58:21;18.90;99.20
5621;DHT22;2832;50.864;12.186;2023-07-22T06:00:53;18.90;99.00
5621;DHT22;2832;50.864;12.186;2023-07-22T06:03:21;18.90;98.90
5621;DHT22;2832;50.864;12.186;2023-07-22T06:05:51;18.90;98.90
5621;DHT22;2832;50.864;12.186;2023-07-22T06:08:18;18.90;98.80
5621;DHT22;2832;50.864;12.186;2023-07-22T06:10:46;19.00;98.80
5621;DHT22;2832;50.864;12.186;2023-07-22T06:13:14;19.00;98.70
5621;DHT22;2832;50.864;12.186;2023-07-22T06:15:43;18.90;98.60
5621;DHT22;2832;50.864;12.186;2023-07-22T06:18:12;18.90;98.60
5621;DHT22;2832;50.864;12.186;2023-07-22T06:20:41;19.00;98.80
5621;DHT22;2832;50.864;12.186;2023-07-22T06:23:12;19.00;98.40
5621;DHT22;2832;50.864;12.186;2023-07-22T06:25:42;19.00;98.30
5621;DHT22;2832;50.864;12.186;2023-07-22T06:28:11;19.00;98.30
5621;DHT22;2832;50.864;12.186;2023-07-22T06:30:39;19.00;98.30
5621;DHT22;2832;50.864;12.186;2023-07-22T06:33:06;19.00;98.10
5621;DHT22;2832;50.864;12.186;2023-07-22T06:35:34;19.00;98.00
5621;DHT22;2832;50.864;12.186;2023-07-22T06:38:04;19.00;98.00
5621;DHT22;2832;50.864;12.186;2023-07-22T06:40:35;19.00;97.90
5621;DHT22;2832;50.864;12.186;2023-07-22T06:43:06;19.00;97.80
5621;DHT22;2832;50.864;12.186;2023-07-22T06:45:35;19.00;97.80
5621;DHT22;2832;50.864;12.186;2023-07-22T06:48:03;19.00;97.70
5621;DHT22;2832;50.864;12.186;2023-07-22T06:50:35;19.10;97.70
5621;DHT22;2832;50.864;12.186;2023-07-22T06:53:11;19.00;97.70
5621;DHT22;2832;50.864;12.186;2023-07-22T06:58:37;19.00;97.40
5621;DHT22;2832;50.864;12.186;2023-07-22T07:01:06;18.90;97.20
5621;DHT22;2832;50.864;12.186;2023-07-22T07:03:43;18.90;97.30
5621;DHT22;2832;50.864;12.186;2023-07-22T07:06:12;18.90;96.90
5621;DHT22;2832;50.864;12.186;2023-07-22T07:08:39;19.00;96.90
5621;DHT22;2832;50.864;12.186;2023-07-22T07:11:09;19.00;96.80
5621;DHT22;2832;50.864;12.186;2023-07-22T07:13:44;18.90;96.30
5621;DHT22;2832;50.864;12.186;2023-07-22T07:16:23;18.90;96.20
5621;DHT22;2832;50.864;12.186;2023-07-22T07:18:53;19.00;96.00
5621;DHT22;2832;50.864;12.186;2023-07-22T07:21:22;19.00;95.90
5621;DHT22;2832;50.864;12.186;2023-07-22T07:23:49;19.00;95.30
5621;DHT22;2832;50.864;12.186;2023-07-22T07:26:18;19.00;94.90
5621;DHT22;2832;50.864;12.186;2023-07-22T07:28:53;19.10;94.70
5621;DHT22;2832;50.864;12.186;2023-07-22T07:31:21;19.00;94.50
5621;DHT22;2832;50.864;12.186;2023-07-22T07:33:48;19.00;94.60
5621;DHT22;2832;50.864;12.186;2023-07-22T07:36:16;19.10;94.30
5621;DHT22;2832;50.864;12.186;2023-07-22T07:38:45;19.10;93.90
5621;DHT22;2832;50.864;12.186;2023-07-22T07:41:16;19.10;93.30
5621;DHT22;2832;50.864;12.186;2023-07-22T07:43:46;19.10;92.90
5621;DHT22;2832;50.864;12.186;2023-07-22T07:46:33;19.10;92.90
5621;DHT22;2832;50.864;12.186;2023-07-22T07:49:01;19.10;92.90
5621;DHT22;2832;50.864;12.186;2023-07-22T07:51:35;19.10;92.80
5621;DHT22;2832;50.864;12.186;2023-07-22T08:52:58;19.60;90.90
5621;DHT22;2832;50.864;12.186;2023-07-22T08:55:28;19.60;91.00
5621;DHT22;2832;50.864;12.186;2023-07-22T08:57:56;19.60;90.80
5621;DHT22;2832;50.864;12.186;2023-07-22T09:00:25;19.60;90.80
5621;DHT22;2832;50.864;12.186;2023-07-22T09:02:59;19.60;90.80
5621;DHT22;2832;50.864;12.186;2023-07-22T09:05:40;19.60;90.70
5621;DHT22;2832;50.864;12.186;2023-07-22T09:08:36;19.60;90.80
5621;DHT22;2832;50.864;12.186;2023-07-22T09:11:18;19.70;90.70
5621;DHT22;2832;50.864;12.186;2023-07-22T09:14:03;19.80;90.60
5621;DHT22;2832;50.864;12.186;2023-07-22T09:16:32;19.80;90.50
5621;DHT22;2832;50.864;12.186;2023-07-22T09:19:04;19.90;90.20
5621;DHT22;2832;50.864;12.186;2023-07-22T09:21:33;19.90;90.10
5621;DHT22;2832;50.864;12.186;2023-07-22T09:24:20;19.80;90.10
5621;DHT22;2832;50.864;12.186;2023-07-22T09:26:51;19.80;90.40
5621;DHT22;2832;50.864;12.186;2023-07-22T09:29:32;19.90;90.20
5621;DHT22;2832;50.864;12.186;2023-07-22T09:32:02;19.90;89.80
5621;DHT22;2832;50.864;12.186;2023-07-22T09:34:30;20.00;89.60
5621;DHT22;2832;50.864;12.186;2023-07-22T09:36:59;20.00;89.20
5621;DHT22;2832;50.864;12.186;2023-07-22T09:39:31;19.90;89.50
5621;DHT22;2832;50.864;12.186;2023-07-22T09:41:59;19.90;89.40
5621;DHT22;2832;50.864;12.186;2023-07-22T09:44:30;20.00;89.20
5621;DHT22;2832;50.864;12.186;2023-07-22T09:47:05;20.00;88.80
5621;DHT22;2832;50.864;12.186;2023-07-22T09:49:34;20.00;88.20
5621;DHT22;2832;50.864;12.186;2023-07-22T09:52:09;20.10;88.50
5621;DHT22;2832;50.864;12.186;2023-07-22T09:54:48;20.20;88.20
5621;DHT22;2832;50.864;12.186;2023-07-22T09:57:18;20.10;88.10
5621;DHT22;2832;50.864;12.186;2023-07-22T09:59:48;20.10;88.40
5621;DHT22;2832;50.864;12.186;2023-07-22T10:02:19;20.10;89.10
5621;DHT22;2832;50.864;12.186;2023-07-22T10:04:53;20.10;89.30
5621;DHT22;2832;50.864;12.186;2023-07-22T10:07:22;20.10;89.50
5621;DHT22;2832;50.864;12.186;2023-07-22T10:09:56;20.20;89.40
5621;DHT22;2832;50.864;12.186;2023-07-22T10:12:26;20.30;89.60
5621;DHT22;2832;50.864;12.186;2023-07-22T10:14:58;20.30;89.70
5621;DHT22;2832;50.864;12.186;2023-07-22T10:17:28;20.30;90.10
5621;DHT22;2832;50.864;12.186;2023-07-22T10:19:56;20.30;90.00
5621;DHT22;2832;50.864;12.186;2023-07-22T10:22:26;20.30;90.00
5621;DHT22;2832;50.864;12.186;2023-07-22T10:24:59;20.40;90.00
5621;DHT22;2832;50.864;12.186;2023-07-22T10:27:28;20.40;89.90
5621;DHT22;2832;50.864;12.186;2023-07-22T10:29:59;20.40;89.80
5621;DHT22;2832;50.864;12.186;2023-07-22T10:32:32;20.50;89.50
5621;DHT22;2832;50.864;12.186;2023-07-22T10:35:02;20.50;89.80
5621;DHT22;2832;50.864;12.186;2023-07-22T10:37:32;20.50;89.80
5621;DHT22;2832;50.864;12.186;2023-07-22T10:40:17;20.40;89.70
5621;DHT22;2832;50.864;12.186;2023-07-22T10:42:52;20.40;89.50
5621;DHT22;2832;50.864;12.186;2023-07-22T10:45:29;20.40;89.40
5621;DHT22;2832;50.864;12.186;2023-07-22T10:48:07;20.50;89.20
5621;DHT22;2832;50.864;12.186;2023-07-22T10:50:42;20.60;89.20
5621;DHT22;2832;50.864;12.186;2023-07-22T10:53:14;20.60;89.40
5621;DHT22;2832;50.864;12.186;2023-07-22T10:56:16;20.70;89.70
5621;DHT22;2832;50.864;12.186;2023-07-22T10:58:59;20.80;89.60
5621;DHT22;2832;50.864;12.186;2023-07-22T11:01:33;20.80;89.70
5621;DHT22;2832;50.864;12.186;2023-07-22T11:04:13;20.80;89.80
5621;DHT22;2832;50.864;12.186;2023-07-22T11:06:55;20.80;89.80
5621;DHT22;2832;50.864;12.186;2023-07-22T11:09:39;20.80;89.50
5621;DHT22;2832;50.864;12.186;2023-07-22T11:12:12;20.80;89.80
5621;DHT22;2832;50.864;12.186;2023-07-22T11:14:48;20.80;89.80
5621;DHT22;2832;50.864;12.186;2023-07-22T11:17:16;20.80;88.60
5621;DHT22;2832;50.864;12.186;2023-07-22T11:19:52;20.80;90.00
5621;DHT22;2832;50.864;12.186;2023-07-22T11:22:39;20.80;90.10
5621;DHT22;2832;50.864;12.186;2023-07-22T11:25:08;20.80;90.00
5621;DHT22;2832;50.864;12.186;2023-07-22T11:27:37;20.80;89.70
5621;DHT22;2832;50.864;12.186;2023-07-22T11:30:07;20.90;89.70
5621;DHT22;2832;50.864;12.186;2023-07-22T11:32:42;20.90;89.60
5621;DHT22;2832;50.864;12.186;2023-07-22T11:35:11;21.00;89.40
5621;DHT22;2832;50.864;12.186;2023-07-22T11:37:42;20.90;90.00
5621;DHT22;2832;50.864;12.186;2023-07-22T11:40:12;20.90;89.40
5621;DHT22;2832;50.864;12.186;2023-07-22T11:42:44;21.00;89.30
5621;DHT22;2832;50.864;12.186;2023-07-22T11:45:14;21.00;89.10
5621;DHT22;2832;50.864;12.186;2023-07-22T11:47:46;21.00;88.80
5621;DHT22;2832;50.864;12.186;2023-07-22T11:50:14;21.10;88.80
5621;DHT22;2832;50.864;12.186;2023-07-22T11:52:50;21.10;88.50
5621;DHT22;2832;50.864;12.186;2023-07-22T11:55:23;21.10;88.40
5621;DHT22;2832;50.864;12.186;2023-07-22T11:58:06;21.00;88.20
5621;DHT22;2832;50.864;12.186;2023-07-22T12:00:35;21.00;88.30
5621;DHT22;2832;50.864;12.186;2023-07-22T12:03:07;21.10;88.20
5621;DHT22;2832;50.864;12.186;2023-07-22T12:05:44;21.10;88.00
5621;DHT22;2832;50.864;12.186;2023-07-22T12:08:23;21.20;87.90
5621;DHT22;2832;50.864;12.186;2023-07-22T12:10:57;21.20;87.90
5621;DHT22;2832;50.864;12.186;2023-07-22T12:13:26;21.20;88.00
5621;DHT22;2832;50.864;12.186;2023-07-22T12:16:00;21.20;87.80
5621;DHT22;2832;50.864;12.186;2023-07-22T12:18:42;21.30;87.70
5621;DHT22;2832;50.864;12.186;2023-07-22T12:21:10;21.30;87.50
5621;DHT22;2832;50.864;12.186;2023-07-22T12:23:38;21.30;86.20
5621;DHT22;2832;50.864;12.186;2023-07-22T12:26:06;21.40;86.40
5621;DHT22;2832;50.864;12.186;2023-07-22T12:28:36;21.40;87.20
5621;DHT22;2832;50.864;12.186;2023-07-22T12:31:06;21.40;86.60
5621;DHT22;2832;50.864;12.186;2023-07-22T12:33:36;21.40;86.70
5621;DHT22;2832;50.864;12.186;2023-07-22T12:36:04;21.40;86.60
5621;DHT22;2832;50.864;12.186;2023-07-22T12:38:34;21.40;86.70
5621;DHT22;2832;50.864;12.186;2023-07-22T12:41:04;21.40;86.60
5621;DHT22;2832;50.864;12.186;2023-07-22T12:43:31;21.40;86.10
5621;DHT22;2832;50.864;12.186;2023-07-22T12:46:01;21.40;85.70
5621;DHT22;2832;50.864;12.186;2023-07-22T12:48:35;21.40;85.70
5621;DHT22;2832;50.864;12.186;2023-07-22T12:51:03;21.40;85.70
5621;DHT22;2832;50.864;12.186;2023-07-22T12:53:36;21.50;83.80
5621;DHT22;2832;50.864;12.186;2023-07-22T12:56:04;21.50;82.20
5621;DHT22;2832;50.864;12.186;2023-07-22T12:58:33;21.50;81.70
5621;DHT22;2832;50.864;12.186;2023-07-22T13:01:04;21.60;81.70
5621;DHT22;2832;50.864;12.186;2023-07-22T13:03:32;21.60;80.80
5621;DHT22;2832;50.864;12.186;2023-07-22T13:06:01;21.60;80.60
5621;DHT22;2832;50.864;12.186;2023-07-22T13:08:28;21.60;80.70
5621;DHT22;2832;50.864;12.186;2023-07-22T13:10:57;21.60;81.20
5621;DHT22;2832;50.864;12.186;2023-07-22T13:13:26;21.70;81.30
5621;DHT22;2832;50.864;12.186;2023-07-22T13:15:56;21.70;81.20
5621;DHT22;2832;50.864;12.186;2023-07-22T13:18:27;21.70;81.20
5621;DHT22;2832;50.864;12.186;2023-07-22T13:20:55;21.70;81.20
5621;DHT22;2832;50.864;12.186;2023-07-22T13:23:32;21.70;81.00
5621;DHT22;2832;50.864;12.186;2023-07-22T13:26:04;21.70;80.50
5621;DHT22;2832;50.864;12.186;2023-07-22T13:28:35;21.80;81.00
5621;DHT22;2832;50.864;12.186;2023-07-22T13:31:03;21.80;81.80
5621;DHT22;2832;50.864;12.186;2023-07-22T13:33:35;21.80;81.00
5621;DHT22;2832;50.864;12.186;2023-07-22T13:36:05;21.90;80.90
5621;DHT22;2832;50.864;12.186;2023-07-22T13:38:36;21.90;81.10
5621;DHT22;2832;50.864;12.186;2023-07-22T13:41:11;21.90;81.20
5621;DHT22;2832;50.864;12.186;2023-07-22T13:43:40;21.90;81.20
5621;DHT22;2832;50.864;12.186;2023-07-22T13:46:09;21.80;81.30
5621;DHT22;2832;50.864;12.186;2023-07-22T13:48:40;21.90;81.60
5621;DHT22;2832;50.864;12.186;2023-07-22T13:51:08;21.90;81.70
5621;DHT22;2832;50.864;12.186;2023-07-22T13:53:39;21.90;81.80
5621;DHT22;2832;50.864;12.186;2023-07-22T13:56:10;21.90;82.00
5621;DHT22;2832;50.864;12.186;2023-07-22T13:58:38;21.90;81.90
5621;DHT22;2832;50.864;12.186;2023-07-22T14:01:11;22.00;82.30
5621;DHT22;2832;50.864;12.186;2023-07-22T14:03:41;22.00;82.30
5621;DHT22;2832;50.864;12.186;2023-07-22T14:06:09;22.00;82.50
5621;DHT22;2832;50.864;12.186;2023-07-22T14:08:37;22.10;82.70
5621;DHT22;2832;50.864;12.186;2023-07-22T14:11:15;22.10;82.80
5621;DHT22;2832;50.864;12.186;2023-07-22T14:13:46;22.20;82.00
5621;DHT22;2832;50.864;12.186;2023-07-22T14:16:14;22.10;81.90
5621;DHT22;2832;50.864;12.186;2023-07-22T14:18:43;22.10;82.20
5621;DHT22;2832;50.864;12.186;2023-07-22T14:21:12;22.20;81.70
5621;DHT22;2832;50.864;12.186;2023-07-22T14:23:40;22.10;81.50
5621;DHT22;2832;50.864;12.186;2023-07-22T14:26:08;22.20;81.50
5621;DHT22;2832;50.864;12.186;2023-07-22T14:28:37;22.20;81.30
5621;DHT22;2832;50.864;12.186;2023-07-22T14:31:04;22.20;81.00
5621;DHT22;2832;50.864;12.186;2023-07-22T14:33:34;22.20;80.90
5621;DHT22;2832;50.864;12.186;2023-07-22T14:36:07;22.20;80.80
5621;DHT22;2832;50.864;12.186;2023-07-22T14:38:35;22.30;81.10
5621;DHT22;2832;50.864;12.186;2023-07-22T14:41:14;22.30;81.00
5621;DHT22;2832;50.864;12.186;2023-07-22T14:43:43;22.30;81.20
5621;DHT22;2832;50.864;12.186;2023-07-22T14:46:11;22.30;81.40
5621;DHT22;2832;50.864;12.186;2023-07-22T14:48:39;22.30;81.70
5621;DHT22;2832;50.864;12.186;2023-07-22T14:51:10;22.20;81.70
5621;DHT22;2832;50.864;12.186;2023-07-22T14:53:38;22.30;81.90
5621;DHT22;2832;50.864;12.186;2023-07-22T14:56:17;22.20;81.90
5621;DHT22;2832;50.864;12.186;2023-07-22T14:58:53;22.20;82.30
5621;DHT22;2832;50.864;12.186;2023-07-22T15:01:24;22.20;82.40
5621;DHT22;2832;50.864;12.186;2023-07-22T15:03:52;22.20;82.30
5621;DHT22;2832;50.864;12.186;2023-07-22T15:06:23;22.30;82.50
5621;DHT22;2832;50.864;12.186;2023-07-22T15:08:54;22.20;82.50
5621;DHT22;2832;50.864;12.186;2023-07-22T15:11:22;22.20;82.70
5621;DHT22;2832;50.864;12.186;2023-07-22T15:13:52;22.20;82.70
5621;DHT22;2832;50.864;12.186;2023-07-22T15:16:20;22.20;82.80
5621;DHT22;2832;50.864;12.186;2023-07-22T15:18:48;22.20;82.90
5621;DHT22;2832;50.864;12.186;2023-07-22T15:21:16;22.20;83.30
5621;DHT22;2832;50.864;12.186;2023-07-22T15:23:48;22.20;83.40
5621;DHT22;2832;50.864;12.186;2023-07-22T15:26:28;22.20;83.50
5621;DHT22;2832;50.864;12.186;2023-07-22T15:28:56;22.30;82.90
5621;DHT22;2832;50.864;12.186;2023-07-22T15:31:24;22.30;82.80
5621;DHT22;2832;50.864;12.186;2023-07-22T15:33:53;22.30;83.00
5621;DHT22;2832;50.864;12.186;2023-07-22T15:36:22;22.40;83.10
5621;DHT22;2832;50.864;12.186;2023-07-22T15:38:51;22.30;82.90
5621;DHT22;2832;50.864;12.186;2023-07-22T15:41:20;22.40;83.30
5621;DHT22;2832;50.864;12.186;2023-07-22T15:43:48;22.30;83.70
5621;DHT22;2832;50.864;12.186;2023-07-22T15:46:16;22.40;84.10
5621;DHT22;2832;50.864;12.186;2023-07-22T15:48:44;22.40;84.10
5621;DHT22;2832;50.864;12.186;2023-07-22T15:51:13;22.50;84.20
5621;DHT22;2832;50.864;12.186;2023-07-22T15:53:42;22.40;84.10
5621;DHT22;2832;50.864;12.186;2023-07-22T15:56:12;22.40;84.10
5621;DHT22;2832;50.864;12.186;2023-07-22T15:58:40;22.40;84.90
5621;DHT22;2832;50.864;12.186;2023-07-22T16:01:11;22.50;84.50
5621;DHT22;2832;50.864;12.186;2023-07-22T16:03:41;22.50;84.20
5621;DHT22;2832;50.864;12.186;2023-07-22T16:06:11;22.50;84.30
5621;DHT22;2832;50.864;12.186;2023-07-22T16:08:40;22.50;84.50
5621;DHT22;2832;50.864;12.186;2023-07-22T16:11:19;22.50;84.30
5621;DHT22;2832;50.864;12.186;2023-07-22T16:13:58;22.50;84.20
5621;DHT22;2832;50.864;12.186;2023-07-22T16:16:31;22.50;84.30
5621;DHT22;2832;50.864;12.186;2023-07-22T16:19:10;22.50;84.20
5621;DHT22;2832;50.864;12.186;2023-07-22T16:22:01;22.60;84.30
5621;DHT22;2832;50.864;12.186;2023-07-22T16:24:29;22.60;84.60
5621;DHT22;2832;50.864;12.186;2023-07-22T16:27:17;22.60;84.50
5621;DHT22;2832;50.864;12.186;2023-07-22T16:30:06;22.60;84.60
5621;DHT22;2832;50.864;12.186;2023-07-22T16:32:36;22.60;84.70
5621;DHT22;2832;50.864;12.186;2023-07-22T16:35:10;22.60;84.70
5621;DHT22;2832;50.864;12.186;2023-07-22T16:37:43;22.60;84.70
5621;DHT22;2832;50.864;12.186;2023-07-22T16:40:14;22.50;84.80
5621;DHT22;2832;50.864;12.186;2023-07-22T16:42:43;22.60;84.90
5621;DHT22;2832;50.864;12.186;2023-07-22T16:45:12;22.60;84.80
5621;DHT22;2832;50.864;12.186;2023-07-22T16:47:43;22.60;84.70
5621;DHT22;2832;50.864;12.186;2023-07-22T16:50:12;22.60;84.60
5621;DHT22;2832;50.864;12.186;2023-07-22T16:52:39;22.60;84.60
5621;DHT22;2832;50.864;12.186;2023-07-22T16:55:10;22.60;84.70
5621;DHT22;2832;50.864;12.186;2023-07-22T16:57:43;22.60;84.60
5621;DHT22;2832;50.864;12.186;2023-07-22T17:00:15;22.60;84.50
5621;DHT22;2832;50.864;12.186;2023-07-22T17:02:56;22.60;84.50
5621;DHT22;2832;50.864;12.186;2023-07-22T17:05:25;22.60;84.40
5621;DHT22;2832;50.864;12.186;2023-07-22T17:08:05;22.60;84.50
5621;DHT22;2832;50.864;12.186;2023-07-22T17:10:39;22.60;84.50
5621;DHT22;2832;50.864;12.186;2023-07-22T17:13:17;22.60;84.60